Time;durP1;ratioP1;P1;durP2;ratioP2;P2;SDS_P1;SDS_P2;PMS_P1;PMS_P2;Temp;Humidity;BMP_temperature;BMP_pressure;BME280_temperature;BME280_humidity;BME280_pressure;Samples;Min_cycle;Max_cycle;Signal;HPM_P1;HPM_P2
2021/11/24 00:02:15;;;;;;;37.28;20.77;;;;;;;-0.66;64.79;101525.85;1758183;80;20907;-72
2021/11/24 00:04:42;;;;;;;37.73;17.65;;;;;;;-0.66;65.04;101531.44;1758060;80;21573;-71
2021/11/24 00:07:09;;;;;;;36.73;18.42;;;;;;;-0.70;65.26;101525.85;1758249;81;21493;-72
2021/11/24 00:09:37;;;;;;;34.83;19.07;;;;;;;-0.69;65.37;101526.27;1757909;81;20979;-72
2021/11/24 00:12:06;;;;;;;32.67;17.45;;;;;;;-0.70;65.40;101527.14;1757992;80;20856;-72
2021/11/24 00:14:32;;;;;;;29.67;16.75;;;;;;;-0.68;65.41;101523.70;1758337;80;20845;-72
2021/11/24 00:17:00;;;;;;;34.78;17.87;;;;;;;-0.67;65.32;101525.84;1757903;81;21125;-72
2021/11/24 00:19:27;;;;;;;28.90;15.03;;;;;;;-0.67;65.21;101531.87;1758231;81;21493;-73
2021/11/24 00:21:54;;;;;;;26.62;15.53;;;;;;;-0.66;64.98;101532.73;1758008;80;20924;-72
2021/11/24 00:24:21;;;;;;;24.20;14.68;;;;;;;-0.68;64.81;101537.02;1757855;81;21462;-72
2021/11/24 00:26:48;;;;;;;30.92;14.87;;;;;;;-0.69;64.77;101528.44;1758026;80;20979;-70
2021/11/24 00:29:16;;;;;;;26.60;14.07;;;;;;;-0.69;64.91;101535.28;1757934;81;20963;-72
2021/11/24 00:31:43;;;;;;;22.95;13.70;;;;;;;-0.71;64.89;101532.73;1757901;81;20884;-71
2021/11/24 00:34:10;;;;;;;33.60;16.45;;;;;;;-0.70;64.84;101530.56;1758277;81;20915;-71
2021/11/24 00:36:37;;;;;;;27.58;15.08;;;;;;;-0.72;64.94;101534.86;1757993;80;20979;-72
2021/11/24 00:39:04;;;;;;;22.93;12.05;;;;;;;-0.74;64.88;101532.70;1758013;81;20876;-71
2021/11/24 00:41:31;;;;;;;23.83;14.73;;;;;;;-0.76;64.88;101534.41;1758171;80;21128;-71
2021/11/24 00:43:58;;;;;;;35.45;16.40;;;;;;;-0.76;64.94;101537.42;1757940;81;20924;-72
2021/11/24 00:46:25;;;;;;;28.75;14.05;;;;;;;-0.75;64.99;101539.16;1758190;81;20993;-70
2021/11/24 00:48:52;;;;;;;18.90;12.50;;;;;;;-0.73;64.73;101537.45;1757976;80;21354;-71
2021/11/24 00:51:18;;;;;;;27.77;13.68;;;;;;;-0.72;64.45;101531.42;1758403;80;20936;-72
2021/11/24 00:53:45;;;;;;;29.60;17.10;;;;;;;-0.72;64.45;101526.28;1757889;80;21115;-71
2021/11/24 00:56:12;;;;;;;25.37;14.63;;;;;;;-0.68;64.43;101540.88;1758212;81;20861;-72
2021/11/24 00:58:39;;;;;;;24.32;13.75;;;;;;;-0.69;64.38;101537.86;1757983;81;20896;-71
2021/11/24 01:01:06;;;;;;;19.10;12.00;;;;;;;-0.68;64.34;101542.17;1757842;80;21564;-71
2021/11/24 01:03:33;;;;;;;22.85;12.82;;;;;;;-0.70;64.49;101550.32;1758065;81;20931;-70
2021/11/24 01:06:00;;;;;;;22.37;14.05;;;;;;;-0.70;64.55;101551.17;1758162;80;21790;-71
2021/11/24 01:08:27;;;;;;;26.05;15.40;;;;;;;-0.69;64.81;101556.77;1757810;81;20979;-71
2021/11/24 01:10:54;;;;;;;30.30;14.78;;;;;;;-0.68;64.76;101546.03;1758251;81;20884;-71
2021/11/24 01:13:21;;;;;;;24.43;14.58;;;;;;;-0.69;64.96;101549.45;1757929;81;20869;-71
2021/11/24 01:15:48;;;;;;;27.27;13.93;;;;;;;-0.67;65.16;101543.88;1757868;80;20956;-71
2021/11/24 01:18:16;;;;;;;21.62;13.75;;;;;;;-0.64;65.17;101545.19;1757925;80;21124;-70
2021/11/24 01:20:46;;;;;;;30.60;16.20;;;;;;;-0.65;65.21;101544.73;1757803;81;20923;-70
2021/11/24 01:23:14;;;;;;;29.77;17.23;;;;;;;-0.61;65.13;101555.48;1757936;81;21354;-71
2021/11/24 01:25:40;;;;;;;36.63;20.23;;;;;;;-0.62;65.20;101557.64;1757815;81;20872;-71
2021/11/24 01:28:07;;;;;;;37.10;18.00;;;;;;;-0.61;65.21;101554.19;1757939;80;20967;-71
2021/11/24 01:30:34;;;;;;;37.65;19.15;;;;;;;-0.60;65.19;101558.50;1757842;80;21131;-71
2021/11/24 01:33:01;;;;;;;42.85;18.87;;;;;;;-0.57;65.06;101561.06;1757962;81;20885;-70
2021/11/24 01:35:28;;;;;;;40.88;19.98;;;;;;;-0.58;65.00;101564.48;1757996;81;20936;-71
2021/11/24 01:37:55;;;;;;;36.98;19.57;;;;;;;-0.56;65.07;101566.64;1757745;81;21030;-70
2021/11/24 01:40:22;;;;;;;36.65;19.95;;;;;;;-0.54;64.99;101562.34;1757770;81;21343;-72
2021/11/24 01:42:49;;;;;;;32.38;17.23;;;;;;;-0.53;64.85;101564.52;1757952;81;21178;-71
2021/11/24 01:45:19;;;;;;;26.20;16.00;;;;;;;-0.53;64.72;101567.95;1757876;81;20967;-70
2021/11/24 01:47:46;;;;;;;28.85;15.95;;;;;;;-0.58;64.68;101565.77;1757970;80;20890;-71
2021/11/24 01:50:13;;;;;;;28.55;15.85;;;;;;;-0.59;64.70;101563.22;1757826;81;20908;-70
2021/11/24 01:52:40;;;;;;;29.72;15.90;;;;;;;-0.65;64.85;101571.34;1757968;81;20983;-70
2021/11/24 01:55:08;;;;;;;26.68;16.80;;;;;;;-0.68;64.97;101570.50;1757833;81;21065;-70
2021/11/24 01:57:36;;;;;;;22.13;13.25;;;;;;;-0.75;64.83;101567.48;1757917;81;20908;-71
2021/11/24 02:00:05;;;;;;;21.97;13.40;;;;;;;-0.85;64.66;101573.88;1757865;81;21358;-70
2021/11/24 02:02:34;;;;;;;27.42;16.48;;;;;;;-0.98;64.75;101578.56;1757285;81;21394;-71
2021/11/24 02:05:01;;;;;;;32.13;17.40;;;;;;;-1.11;64.94;101576.40;1757856;81;20848;-71
2021/11/24 02:07:28;;;;;;;27.13;16.80;;;;;;;-1.24;65.65;101586.21;1758455;81;21959;-70
2021/11/24 02:09:55;;;;;;;29.48;16.55;;;;;;;-1.27;66.10;101584.49;1759003;81;20873;-69
2021/11/24 02:12:22;;;;;;;29.85;16.62;;;;;;;-1.31;66.31;101589.19;1758390;80;20853;-72
2021/11/24 02:14:49;;;;;;;35.60;16.90;;;;;;;-1.33;66.54;101588.31;1758048;81;20987;-71
2021/11/24 02:17:16;;;;;;;33.85;18.82;;;;;;;-1.35;66.73;101595.59;1757916;81;20889;-72
2021/11/24 02:19:43;;;;;;;39.23;22.70;;;;;;;-1.39;66.81;101598.56;1757887;81;21132;-72
2021/11/24 02:22:10;;;;;;;35.58;21.10;;;;;;;-1.46;66.99;101606.68;1757904;81;21149;-73
2021/11/24 02:24:38;;;;;;;37.70;20.90;;;;;;;-1.52;67.14;101608.36;1757861;81;20940;-72
2021/11/24 02:27:08;;;;;;;33.42;18.23;;;;;;;-1.62;67.34;101595.88;1757739;81;20849;-72
2021/11/24 02:29:35;;;;;;;31.35;17.95;;;;;;;-1.69;67.54;101600.13;1758026;81;20912;-71
2021/11/24 02:32:04;;;;;;;34.80;21.15;;;;;;;-1.79;67.67;101602.19;1757907;81;20880;-72
2021/11/24 02:34:32;;;;;;;32.13;18.52;;;;;;;-1.87;67.86;101611.55;1757769;81;20928;-72
2021/11/24 02:36:59;;;;;;;35.28;18.27;;;;;;;-1.97;68.12;101614.48;1758196;80;20928;-72
2021/11/24 02:39:26;;;;;;;38.33;19.23;;;;;;;-2.01;68.32;101624.30;1757826;81;21015;-73
2021/11/24 02:41:53;;;;;;;30.65;17.90;;;;;;;-2.07;68.58;101622.97;1744511;81;21356;-73
2021/11/24 02:44:32;;;;;;;32.40;18.35;;;;;;;-2.11;68.75;101618.67;1744583;81;21139;-72
2021/11/24 02:47:11;;;;;;;40.88;19.67;;;;;;;-2.15;69.01;101626.77;1744374;80;20968;-72
2021/11/24 02:49:41;;;;;;;36.28;18.75;;;;;;;-2.17;69.23;101622.03;1744110;81;20893;-71
2021/11/24 02:52:08;;;;;;;30.62;18.17;;;;;;;-2.20;69.35;101631.02;1744766;82;20940;-71
2021/11/24 02:54:35;;;;;;;31.45;15.50;;;;;;;-2.23;69.46;101628.40;1744561;81;21026;-71
2021/11/24 02:57:04;;;;;;;24.30;15.25;;;;;;;-2.23;69.54;101626.27;1744780;82;21115;-72
2021/11/24 02:59:31;;;;;;;34.08;17.85;;;;;;;-2.25;69.57;101622.81;1744577;81;20849;-71
2021/11/24 03:01:58;;;;;;;27.73;15.35;;;;;;;-2.27;69.52;101624.08;1745029;82;21449;-70
2021/11/24 03:04:31;;;;;;;34.15;18.00;;;;;;;-2.33;69.55;101623.61;1744814;81;20862;-71
2021/11/24 03:06:59;;;;;;;34.20;17.37;;;;;;;-2.37;69.58;101627.00;1744933;82;21394;-71
2021/11/24 03:09:26;;;;;;;36.42;18.62;;;;;;;-2.40;69.72;101634.69;1744617;82;21148;-72
2021/11/24 03:11:53;;;;;;;30.02;16.48;;;;;;;-2.42;69.82;101641.91;1744940;81;20877;-71
2021/11/24 03:14:21;;;;;;;29.60;17.12;;;;;;;-2.42;69.89;101643.19;1744714;81;20889;-71
2021/11/24 03:16:49;;;;;;;29.82;16.70;;;;;;;-2.43;69.90;101645.34;1744705;81;21011;-71
2021/11/24 03:19:16;;;;;;;28.47;17.32;;;;;;;-2.46;69.87;101645.31;1744626;82;21016;-72
2021/11/24 03:21:43;;;;;;;33.18;17.62;;;;;;;-2.50;69.94;101651.69;1744760;82;21975;-71
2021/11/24 03:24:10;;;;;;;30.23;14.90;;;;;;;-2.50;69.91;101653.41;1744644;80;21081;-71
2021/11/24 03:26:37;;;;;;;31.57;18.15;;;;;;;-2.55;69.84;101646.94;1744637;82;21442;-70
2021/11/24 03:29:05;;;;;;;36.03;19.40;;;;;;;-2.60;69.98;101649.00;1744665;80;20901;-73
2021/11/24 03:31:32;;;;;;;32.63;19.62;;;;;;;-2.65;70.00;101659.66;1744977;80;21553;-72
2021/11/24 03:33:59;;;;;;;54.23;27.10;;;;;;;-2.73;70.22;101667.28;1744749;82;21618;-72
2021/11/24 03:36:26;;;;;;;27.30;16.32;;;;;;;-2.81;70.33;101665.89;1744955;82;21484;-72
2021/11/24 03:38:53;;;;;;;25.50;15.15;;;;;;;-2.87;70.49;101667.52;1744637;82;20888;-72
2021/11/24 03:41:20;;;;;;;27.30;15.78;;;;;;;-2.92;70.58;101675.17;1753239;81;20916;-72
2021/11/24 03:43:48;;;;;;;36.23;18.37;;;;;;;-3.00;70.57;101681.89;1758271;81;21493;-72
2021/11/24 03:46:15;;;;;;;33.20;16.77;;;;;;;-3.06;70.54;101677.99;1757957;80;21035;-72
2021/11/24 03:48:42;;;;;;;29.57;15.72;;;;;;;-3.16;70.60;101685.57;1757970;80;20904;-72
2021/11/24 03:51:09;;;;;;;29.37;17.40;;;;;;;-3.21;70.71;101696.17;1758401;80;20928;-71
2021/11/24 03:53:40;;;;;;;31.00;17.65;;;;;;;-3.27;70.84;101697.78;1758010;81;21027;-71
2021/11/24 03:56:05;;;;;;;43.23;21.97;;;;;;;-3.33;70.86;101708.83;1758249;80;20880;-73
2021/11/24 03:58:32;;;;;;;44.95;20.30;;;;;;;-3.40;70.89;101705.31;1758004;80;21394;-72
2021/11/24 04:00:59;;;;;;;34.35;17.80;;;;;;;-3.46;71.02;101712.05;1758146;81;20952;-70
2021/11/24 04:03:26;;;;;;;33.50;16.87;;;;;;;-3.49;71.15;101706.86;1758164;81;20924;-72
2021/11/24 04:05:54;;;;;;;31.82;18.55;;;;;;;-3.50;71.16;101716.26;1758061;81;20924;-72
2021/11/24 04:08:21;;;;;;;32.28;20.17;;;;;;;-3.52;71.26;101723.48;1758067;81;20975;-71
2021/11/24 04:10:48;;;;;;;40.30;20.20;;;;;;;-3.52;71.26;101724.77;1758301;81;21264;-72
2021/11/24 04:13:15;;;;;;;39.95;20.10;;;;;;;-3.52;71.37;101728.19;1757913;80;20983;-71
2021/11/24 04:15:43;;;;;;;30.55;18.82;;;;;;;-3.51;71.36;101722.63;1758032;80;20936;-71
2021/11/24 04:18:09;;;;;;;39.05;19.35;;;;;;;-3.50;71.17;101723.09;1758087;80;20955;-71
2021/11/24 04:20:36;;;;;;;29.15;17.37;;;;;;;-3.50;71.20;101716.69;1758027;81;20971;-73
2021/11/24 04:23:03;;;;;;;40.90;20.15;;;;;;;-3.49;71.31;101721.84;1758454;80;21014;-71
2021/11/24 04:25:31;;;;;;;34.33;17.98;;;;;;;-3.47;71.23;101720.14;1757963;81;20877;-71
2021/11/24 04:27:58;;;;;;;32.05;17.12;;;;;;;-3.45;71.20;101725.30;1758280;81;20987;-72
2021/11/24 04:30:25;;;;;;;35.17;18.85;;;;;;;-3.45;71.05;101726.16;1758050;81;21026;-72
2021/11/24 04:32:52;;;;;;;31.90;18.67;;;;;;;-3.46;70.80;101726.16;1758032;81;20954;-71
2021/11/24 04:35:19;;;;;;;40.88;21.00;;;;;;;-3.49;70.63;101726.98;1757913;80;21796;-72
2021/11/24 04:37:47;;;;;;;43.33;21.23;;;;;;;-3.53;70.35;101730.33;1758034;80;20979;-73
2021/11/24 04:40:15;;;;;;;67.25;31.80;;;;;;;-3.61;70.25;101742.14;1757995;80;20857;-71
2021/11/24 04:42:42;;;;;;;65.67;31.10;;;;;;;-3.72;70.05;101748.80;1758116;81;20937;-71
2021/11/24 04:45:09;;;;;;;80.85;31.93;;;;;;;-3.86;70.15;101748.14;1758007;80;20973;-71
2021/11/24 04:47:36;;;;;;;81.60;34.20;;;;;;;-3.94;70.42;101762.93;1757984;80;21146;-71
2021/11/24 04:50:04;;;;;;;78.90;36.20;;;;;;;-4.02;70.53;101773.05;1757969;81;20920;-71
2021/11/24 04:52:33;;;;;;;78.45;34.73;;;;;;;-4.10;70.59;101776.73;1758039;80;20912;-70
2021/11/24 04:55:00;;;;;;;72.03;29.35;;;;;;;-4.17;70.71;101783.44;1757946;80;20944;-71
2021/11/24 04:57:26;;;;;;;74.03;31.65;;;;;;;-4.18;70.93;101785.96;1757972;81;20967;-72
2021/11/24 04:59:53;;;;;;;79.20;34.50;;;;;;;-4.14;70.98;101791.59;1741211;81;21134;-70
2021/11/24 05:02:20;;;;;;;73.55;31.93;;;;;;;-4.10;71.10;101794.66;1757911;80;20981;-72
2021/11/24 05:04:47;;;;;;;70.55;31.65;;;;;;;-4.05;71.10;101798.17;1758004;81;21452;-72
2021/11/24 05:07:14;;;;;;;47.80;23.90;;;;;;;-4.01;71.10;101794.83;1758056;81;20904;-72
2021/11/24 05:09:43;;;;;;;63.02;27.80;;;;;;;-3.98;71.08;101799.15;1757958;81;21437;-73
2021/11/24 05:12:10;;;;;;;34.43;18.32;;;;;;;-3.97;71.12;101804.73;1757938;81;22034;-72
2021/11/24 05:14:38;;;;;;;60.88;28.12;;;;;;;-3.94;71.25;101806.06;1757965;80;20877;-72
2021/11/24 05:17:08;;;;;;;69.75;31.48;;;;;;;-3.93;71.31;101809.09;1757953;81;20924;-74
2021/11/24 05:19:36;;;;;;;74.75;36.77;;;;;;;-3.91;71.09;101806.53;1706989;81;21438;-73
2021/11/24 05:22:04;;;;;;;73.78;33.35;;;;;;;-3.89;70.91;101814.72;1758088;80;20884;-73
2021/11/24 05:24:31;;;;;;;85.53;37.35;;;;;;;-3.92;70.71;101815.06;1757987;81;21209;-73
2021/11/24 05:26:58;;;;;;;110.45;45.60;;;;;;;-3.95;70.69;101819.72;1757865;80;20973;-73
2021/11/24 05:29:25;;;;;;;112.40;43.80;;;;;;;-4.00;70.64;101823.91;1758038;81;20940;-74
2021/11/24 05:31:52;;;;;;;120.57;53.48;;;;;;;-4.05;70.64;101821.22;1757909;81;20853;-74
2021/11/24 05:34:19;;;;;;;132.15;59.33;;;;;;;-4.09;70.68;101827.54;1758546;81;20893;-73
2021/11/24 05:36:46;;;;;;;121.02;53.42;;;;;;;-4.13;70.69;101828.34;1757935;81;20881;-72
2021/11/24 05:39:12;;;;;;;123.13;54.20;;;;;;;-4.14;70.80;101841.54;1758104;81;20967;-73
2021/11/24 05:41:41;;;;;;;123.97;56.20;;;;;;;-4.19;70.88;101844.01;1750749;81;20869;-72
2021/11/24 05:44:25;;;;;;;145.53;65.37;;;;;;;-4.25;70.84;101846.44;1744402;81;20941;-72
2021/11/24 05:46:58;;;;;;;119.93;55.23;;;;;;;-4.28;71.01;101847.67;1744774;82;20889;-73
2021/11/24 05:49:28;;;;;;;115.00;51.08;;;;;;;-4.29;71.19;101852.36;1744651;82;21836;-71
2021/11/24 05:51:57;;;;;;;76.30;37.98;;;;;;;-4.28;71.26;101860.47;1744463;81;21406;-73
2021/11/24 05:54:24;;;;;;;83.40;37.93;;;;;;;-4.27;71.36;101860.94;1744844;82;20893;-71
2021/11/24 05:56:51;;;;;;;77.25;38.60;;;;;;;-4.22;71.54;101861.03;1744741;82;21335;-71
2021/11/24 05:59:18;;;;;;;77.12;38.10;;;;;;;-4.16;71.50;101864.97;1744912;82;21438;-73
2021/11/24 06:01:45;;;;;;;70.30;33.33;;;;;;;-4.10;71.34;101865.10;1744526;82;21323;-72
2021/11/24 06:04:12;;;;;;;67.85;32.65;;;;;;;-4.04;71.35;101861.39;1744921;81;20877;-71
2021/11/24 06:06:39;;;;;;;58.52;29.02;;;;;;;-3.97;71.57;101868.36;1744499;80;20984;-73
2021/11/24 06:09:06;;;;;;;52.05;26.48;;;;;;;-3.88;71.73;101864.27;1744500;81;20940;-72
2021/11/24 06:11:33;;;;;;;52.17;27.07;;;;;;;-3.81;71.80;101858.41;1744771;82;20889;-71
2021/11/24 06:14:01;;;;;;;55.70;32.53;;;;;;;-3.74;71.89;101866.66;1744871;82;21101;-73
2021/11/24 06:16:28;;;;;;;63.30;34.43;;;;;;;-3.69;71.92;101866.34;1745623;81;20976;-74
2021/11/24 06:18:56;;;;;;;52.23;31.55;;;;;;;-3.63;71.95;101873.27;1744993;82;20908;-70
2021/11/24 06:21:23;;;;;;;55.20;29.20;;;;;;;-3.57;71.90;101878.52;1744644;82;20869;-72
2021/11/24 06:23:50;;;;;;;59.40;30.65;;;;;;;-3.50;71.94;101887.19;1744754;80;20953;-73
2021/11/24 06:26:19;;;;;;;58.00;28.55;;;;;;;-3.45;71.92;101885.56;1744707;81;22076;-71
2021/11/24 06:28:46;;;;;;;48.63;24.57;;;;;;;-3.40;71.90;101891.63;1744833;82;21357;-73
2021/11/24 06:31:13;;;;;;;42.10;24.55;;;;;;;-3.36;71.89;101890.45;1744664;82;21375;-73
2021/11/24 06:33:40;;;;;;;49.33;23.60;;;;;;;-3.30;71.90;101889.69;1744897;82;20941;-72
2021/11/24 06:36:07;;;;;;;45.52;23.62;;;;;;;-3.24;71.90;101885.95;1745033;82;20956;-72
2021/11/24 06:38:34;;;;;;;43.52;22.87;;;;;;;-3.18;71.90;101884.78;1744500;80;21425;-72
2021/11/24 06:41:03;;;;;;;44.45;22.32;;;;;;;-3.11;71.79;101885.74;1744508;81;21177;-72
2021/11/24 06:43:30;;;;;;;39.48;23.80;;;;;;;-3.03;71.66;101890.98;1744592;82;20936;-72
2021/11/24 06:45:57;;;;;;;42.98;22.48;;;;;;;-3.00;71.41;101898.73;1744491;82;21461;-72
2021/11/24 06:48:24;;;;;;;47.75;21.73;;;;;;;-2.98;71.34;101901.79;1744707;81;20913;-71
2021/11/24 06:50:51;;;;;;;38.23;21.85;;;;;;;-2.92;71.32;101899.72;1744695;82;21399;-72
2021/11/24 06:56:06;;;;;;;50.40;24.32;;;;;;;-2.75;71.35;101889.73;1884022;75;22331;-72
2021/11/24 06:58:33;;;;;;;44.65;20.23;;;;;;;-2.76;71.23;101890.56;1860697;77;21389;-71
2021/11/24 07:01:02;;;;;;;28.35;17.85;;;;;;;-2.72;71.17;101896.19;1860848;77;21539;-73
2021/11/24 07:03:29;;;;;;;27.02;16.37;;;;;;;-2.69;70.97;101900.11;1860730;77;20921;-71
2021/11/24 07:05:56;;;;;;;22.22;13.25;;;;;;;-2.65;70.73;101903.56;1861089;77;20859;-71
2021/11/24 07:08:24;;;;;;;29.72;14.95;;;;;;;-2.60;70.48;101910.51;1860798;76;20910;-72
2021/11/24 07:10:51;;;;;;;21.02;12.18;;;;;;;-2.57;70.22;101910.97;1860922;77;20923;-73
2021/11/24 07:13:18;;;;;;;22.20;12.40;;;;;;;-2.54;69.87;101912.29;1859045;77;21061;-74
2021/11/24 07:15:46;;;;;;;23.42;13.45;;;;;;;-2.50;69.43;101911.50;1858877;77;20826;-71
2021/11/24 07:18:13;;;;;;;24.85;13.05;;;;;;;-2.45;69.26;101921.83;1859060;77;20854;-73
2021/11/24 07:20:42;;;;;;;29.18;14.18;;;;;;;-2.42;69.02;101921.47;1858957;77;21000;-72
2021/11/24 07:23:09;;;;;;;26.55;13.83;;;;;;;-2.37;68.90;101926.67;1859468;77;20932;-73
2021/11/24 07:25:36;;;;;;;21.17;12.90;;;;;;;-2.32;69.03;101931.02;1858994;77;21126;-73
2021/11/24 07:28:03;;;;;;;22.48;13.08;;;;;;;-2.25;68.92;101937.53;1859347;76;21015;-72
2021/11/24 07:30:30;;;;;;;24.85;12.75;;;;;;;-2.23;68.50;101939.28;1859417;77;20972;-72
2021/11/24 07:32:57;;;;;;;19.17;11.28;;;;;;;-2.22;68.49;101947.45;1858927;76;20889;-72
2021/11/24 07:35:25;;;;;;;16.23;9.98;;;;;;;-2.16;68.39;101946.66;1858928;77;20964;-71
2021/11/24 07:37:52;;;;;;;22.65;12.03;;;;;;;-2.09;68.13;101947.17;1858975;76;21957;-74
2021/11/24 07:40:21;;;;;;;25.08;14.40;;;;;;;-2.02;67.91;101939.13;1859015;77;20960;-74
2021/11/24 07:42:49;;;;;;;23.67;14.07;;;;;;;-1.97;67.64;101940.06;1858873;77;20969;-72
2021/11/24 07:45:16;;;;;;;18.57;12.28;;;;;;;-1.93;67.90;101945.69;1859122;76;20862;-72
2021/11/24 07:47:43;;;;;;;20.40;10.55;;;;;;;-1.85;67.84;101941.92;1858951;77;21002;-72
2021/11/24 07:50:10;;;;;;;19.50;10.40;;;;;;;-1.79;67.66;101948.00;1859286;76;21439;-72
2021/11/24 07:52:37;;;;;;;14.43;9.03;;;;;;;-1.75;67.36;101945.06;1858857;76;20834;-72
2021/11/24 07:55:09;;;;;;;14.10;10.10;;;;;;;-1.72;67.14;101938.23;1858621;77;20877;-71
2021/11/24 07:57:33;;;;;;;19.65;10.23;;;;;;;-1.69;67.16;101949.85;1857927;76;20873;-71
2021/11/24 08:00:01;;;;;;;10.13;6.58;;;;;;;-1.61;67.11;101959.36;1858925;77;20949;-72
2021/11/24 08:02:30;;;;;;;11.70;7.60;;;;;;;-1.58;66.79;101964.53;1857268;77;21110;-70
2021/11/24 08:04:57;;;;;;;10.82;7.35;;;;;;;-1.54;66.54;101958.58;1858700;77;20901;-71
2021/11/24 08:07:24;;;;;;;13.25;7.90;;;;;;;-1.49;66.04;101964.63;1858353;77;20853;-72
2021/11/24 08:09:52;;;;;;;12.75;6.78;;;;;;;-1.47;65.75;101966.41;1858172;76;21483;-72
2021/11/24 08:12:19;;;;;;;17.32;8.00;;;;;;;-1.44;65.19;101957.00;1858907;77;20833;-72
2021/11/24 08:14:46;;;;;;;9.30;5.10;;;;;;;-1.43;65.11;101957.42;1857941;77;22116;-70
2021/11/24 08:17:13;;;;;;;7.95;5.67;;;;;;;-1.33;64.51;101948.97;1858579;77;21069;-70
2021/11/24 08:19:39;;;;;;;7.90;5.90;;;;;;;-1.23;64.17;101943.05;1858203;77;21375;-72
2021/11/24 08:22:09;;;;;;;15.63;6.37;;;;;;;-1.07;63.66;101944.05;1858151;76;20885;-70
2021/11/24 08:24:35;;;;;;;10.78;6.20;;;;;;;-0.97;63.12;101948.89;1858300;76;20904;-72
2021/11/24 08:27:03;;;;;;;9.85;6.15;;;;;;;-0.86;62.73;101948.55;1858264;77;21078;-69
2021/11/24 08:29:30;;;;;;;6.45;4.40;;;;;;;-0.79;62.51;101942.59;1858173;76;20960;-69
2021/11/24 08:31:57;;;;;;;5.37;3.25;;;;;;;-0.70;61.72;101948.25;1858489;77;20842;-68
2021/11/24 08:34:24;;;;;;;4.03;3.15;;;;;;;-0.62;60.65;101953.05;1858183;77;21398;-69
2021/11/24 08:36:52;;;;;;;6.20;4.58;;;;;;;-0.55;60.01;101957.82;1858630;77;20889;-70
2021/11/24 08:39:20;;;;;;;7.37;3.75;;;;;;;-0.47;59.49;101961.30;1858274;77;21944;-69
2021/11/24 08:41:47;;;;;;;3.85;3.17;;;;;;;-0.41;58.79;101953.61;1857868;77;20869;-70
2021/11/24 08:44:14;;;;;;;9.28;4.15;;;;;;;-0.37;58.82;101960.95;1858176;77;20912;-68
2021/11/24 08:46:41;;;;;;;7.72;4.33;;;;;;;-0.32;58.69;101963.98;1858371;77;20933;-69
2021/11/24 08:49:08;;;;;;;7.37;4.62;;;;;;;-0.19;58.23;101957.62;1858279;77;20847;-69
2021/11/24 08:51:37;;;;;;;6.00;4.00;;;;;;;-0.09;57.90;101964.14;1858250;77;21055;-69
2021/11/24 08:54:07;;;;;;;4.78;3.52;;;;;;;0.04;57.48;101969.35;1858173;77;20857;-70
2021/11/24 08:56:35;;;;;;;6.75;3.67;;;;;;;0.12;57.41;101960.80;1820533;77;20877;-69
2021/11/24 08:59:05;;;;;;;7.90;4.65;;;;;;;0.23;56.93;101963.44;1818768;77;20867;-68
2021/11/24 09:01:33;;;;;;;5.00;3.98;;;;;;;0.29;56.33;101962.58;1818938;77;20915;-70
2021/11/24 09:04:00;;;;;;;8.83;4.15;;;;;;;0.31;56.14;101964.74;1818775;79;21364;-69
2021/11/24 09:06:27;;;;;;;5.53;3.75;;;;;;;0.35;56.25;101963.91;1818976;77;20871;-69
2021/11/24 09:08:54;;;;;;;4.70;4.03;;;;;;;0.41;55.79;101958.34;1818827;77;20925;-70
2021/11/24 09:11:20;;;;;;;3.87;3.40;;;;;;;0.43;55.71;101957.06;1818999;79;20918;-70
2021/11/24 09:13:47;;;;;;;7.25;3.95;;;;;;;0.47;55.65;101959.20;1818970;79;20862;-69
2021/11/24 09:16:15;;;;;;;7.05;4.80;;;;;;;0.53;55.35;101962.67;1818741;77;21142;-70
2021/11/24 09:18:42;;;;;;;9.63;4.12;;;;;;;0.62;55.30;101964.42;1818740;77;21397;-69
2021/11/24 09:21:09;;;;;;;5.28;3.62;;;;;;;0.69;55.15;101966.19;1818836;77;20918;-71
2021/11/24 09:23:38;;;;;;;6.40;4.30;;;;;;;0.68;54.93;101959.72;1818729;77;20879;-70
2021/11/24 09:26:20;;;;;;;7.28;4.47;;;;;;;0.71;54.53;101972.22;1818870;77;20863;-70
2021/11/24 09:28:45;;;;;;;8.35;4.83;;;;;;;0.76;53.97;101968.35;1818524;77;21203;-69
2021/11/24 09:31:12;;;;;;;10.58;4.05;;;;;;;0.75;53.72;101964.89;1818925;77;21282;-70
2021/11/24 09:33:39;;;;;;;7.62;3.72;;;;;;;0.84;53.25;101962.75;1818744;77;20958;-69
2021/11/24 09:36:07;;;;;;;5.08;3.58;;;;;;;0.83;53.59;101961.90;1819027;77;21425;-70
2021/11/24 09:38:34;;;;;;;3.87;3.58;;;;;;;0.88;53.30;101963.64;1818831;77;20958;-69
2021/11/24 09:41:05;;;;;;;4.30;3.37;;;;;;;0.86;52.74;101957.16;1819127;77;21790;-69
2021/11/24 09:43:37;;;;;;;7.30;4.05;;;;;;;0.85;52.69;101956.75;1818684;77;21341;-70
2021/11/24 09:46:04;;;;;;;8.75;3.70;;;;;;;0.88;52.58;101958.47;1819074;77;20819;-69
2021/11/24 09:48:31;;;;;;;4.78;3.60;;;;;;;0.94;52.28;101959.34;1818777;77;20966;-69
2021/11/24 09:50:58;;;;;;;5.30;2.92;;;;;;;0.96;52.20;101957.62;1819174;77;21836;-69
2021/11/24 09:53:25;;;;;;;5.20;3.58;;;;;;;1.03;51.61;101965.80;1818805;77;21543;-69
2021/11/24 09:55:53;;;;;;;3.00;2.58;;;;;;;1.09;51.42;101968.84;1746613;78;21550;-68
2021/11/24 09:58:20;;;;;;;5.92;3.67;;;;;;;1.15;51.75;101959.78;1830369;77;20984;-68
2021/11/24 10:00:47;;;;;;;8.18;3.72;;;;;;;1.24;51.21;101964.09;1830664;77;21344;-70
2021/11/24 10:03:15;;;;;;;7.20;4.65;;;;;;;1.29;51.18;101956.34;1830438;77;20838;-70
2021/11/24 10:05:44;;;;;;;4.20;2.80;;;;;;;1.36;51.21;101959.37;1831147;78;21501;-70
2021/11/24 10:08:11;;;;;;;3.40;3.10;;;;;;;1.34;50.06;101960.66;1777149;78;21039;-69
2021/11/24 10:10:41;;;;;;;5.92;3.92;;;;;;;1.29;49.71;101957.62;1830461;77;20895;-69
2021/11/24 10:13:10;;;;;;;5.67;3.00;;;;;;;1.28;49.74;101968.41;1830220;77;20894;-70
2021/11/24 10:15:48;;;;;;;4.37;2.62;;;;;;;1.35;49.75;101966.69;1830516;77;20945;-69
2021/11/24 10:18:26;;;;;;;4.72;3.60;;;;;;;1.40;49.32;101971.01;1830514;77;21171;-70
2021/11/24 10:21:10;;;;;;;5.28;3.52;;;;;;;1.48;49.12;101964.96;1765908;79;20874;-71
2021/11/24 10:23:45;;;;;;;5.50;3.47;;;;;;;1.50;49.28;101955.05;1764891;79;21039;-70
2021/11/24 10:26:18;;;;;;;6.05;3.02;;;;;;;1.56;49.45;101965.83;1765762;80;20968;-69
2021/11/24 10:28:52;;;;;;;3.98;2.98;;;;;;;1.60;49.41;101956.77;1765846;80;21046;-69
2021/11/24 10:31:31;;;;;;;;;;;;;;;1.63;49.44;101955.91;1764582;79;21273;-71
2021/11/24 10:33:58;;;;;;;5.03;3.17;;;;;;;1.60;49.75;101957.18;1765835;79;20356;-72
2021/11/24 10:36:25;;;;;;;3.85;3.45;;;;;;;1.59;50.03;101948.57;1766024;79;20890;-72
2021/11/24 10:38:52;;;;;;;7.25;3.22;;;;;;;1.60;49.36;101950.31;1765507;79;20938;-71
2021/11/24 10:41:30;;;;;;;4.67;3.62;;;;;;;1.59;48.98;101952.45;1765763;79;20984;-73
2021/11/24 10:43:56;;;;;;;6.35;3.55;;;;;;;1.62;48.99;101952.87;1765986;79;21759;-71
2021/11/24 10:46:26;;;;;;;5.25;3.22;;;;;;;1.65;48.76;101956.33;1765797;79;21523;-70
2021/11/24 10:49:02;;;;;;;5.65;3.47;;;;;;;1.71;48.48;101950.70;1765664;80;20984;-72
2021/11/24 10:51:42;;;;;;;6.40;3.52;;;;;;;1.78;48.05;101953.70;1790002;78;21462;-69
2021/11/24 10:54:18;;;;;;;6.33;4.00;;;;;;;1.82;47.50;101947.66;1830308;77;20914;-71
2021/11/24 10:57:07;;;;;;;4.62;3.02;;;;;;;1.83;47.11;101953.28;1822283;77;21499;-71
2021/11/24 10:59:41;;;;;;;4.65;3.58;;;;;;;1.80;46.79;101949.39;1857290;77;20933;-70
2021/11/24 11:02:34;;;;;;;5.85;4.50;;;;;;;1.74;46.35;101958.48;1857434;76;20861;-70
2021/11/24 11:05:15;;;;;;;10.68;7.00;;;;;;;1.69;46.49;101956.31;1857662;77;21024;-69
2021/11/24 11:07:59;;;;;;;12.30;7.37;;;;;;;1.71;47.52;101952.00;1858448;77;20902;-70
2021/11/24 11:10:38;;;;;;;9.18;6.25;;;;;;;1.73;47.63;101958.88;1858117;76;21667;-71
2021/11/24 11:13:13;;;;;;;11.75;6.67;;;;;;;1.74;47.56;101963.65;1858585;77;20909;-70
2021/11/24 11:15:49;;;;;;;12.10;6.95;;;;;;;1.75;47.75;101958.89;1857764;77;20873;-70
2021/11/24 11:18:27;;;;;;;7.72;5.05;;;;;;;1.75;47.12;101953.72;1858089;77;21304;-72
2021/11/24 11:21:02;;;;;;;9.83;5.08;;;;;;;1.70;47.08;101960.20;1858067;77;20877;-69
2021/11/24 11:23:35;;;;;;;9.65;6.35;;;;;;;1.69;46.91;101953.72;1858133;76;21406;-72